Time;durP1;ratioP1;P1;durP2;ratioP2;P2;SDS_P1;SDS_P2;PMS_P1;PMS_P2;Temp;Humidity;BMP_temperature;BMP_pressure;BME280_temperature;BME280_humidity;BME280_pressure;Samples;Min_cycle;Max_cycle;Signal;HPM_P1;HPM_P2
2022/06/28 00:02:12;;;;;;;8.45;6.53;;;;;;;24.45;55.89;99199.09;8461374;28;20495;-80
2022/06/28 00:06:16;;;;;;;10.90;6.63;;;;;;;24.53;55.65;99200.69;8459563;28;20043;-81
2022/06/28 00:10:17;;;;;;;13.07;7.05;;;;;;;24.48;56.05;99192.78;8461337;28;20077;-81
2022/06/28 00:18:42;;;;;;;12.75;6.70;;;;;;;24.35;56.39;99183.38;8467774;28;20092;-82
2022/06/28 00:22:44;;;;;;;13.23;6.90;;;;;;;24.23;56.59;99186.53;8467382;28;20044;-80
2022/06/28 00:26:46;;;;;;;10.50;6.85;;;;;;;24.11;57.38;99184.19;8468029;28;20051;-79
2022/06/28 00:36:03;;;;;;;8.75;6.63;;;;;;;23.85;58.43;99197.22;8463882;27;20065;-80
2022/06/28 00:40:05;;;;;;;14.35;7.22;;;;;;;23.83;58.23;99196.84;8475119;27;20043;-79
2022/06/28 00:49:21;;;;;;;13.95;7.25;;;;;;;23.77;58.52;99214.94;8455586;28;20441;-80
2022/06/28 00:53:22;;;;;;;18.02;6.90;;;;;;;23.71;58.73;99216.53;8460119;28;20044;-79
2022/06/28 00:57:23;;;;;;;14.77;7.50;;;;;;;23.73;58.93;99236.22;8464569;28;20126;-80
2022/06/28 01:01:27;;;;;;;12.52;7.90;;;;;;;23.68;59.43;99233.88;8466291;28;20044;-80
2022/06/28 01:05:28;;;;;;;11.57;7.93;;;;;;;23.52;59.96;99250.00;8464825;28;20035;-80
2022/06/28 01:09:29;;;;;;;14.52;7.90;;;;;;;23.41;60.61;99257.41;8451623;28;20510;-82
2022/06/28 01:13:33;;;;;;;10.23;8.30;;;;;;;23.34;61.07;99251.88;8464295;28;20067;-80
2022/06/28 01:17:34;;;;;;;13.18;7.78;;;;;;;23.28;61.24;99254.22;8463327;28;20063;-79
2022/06/28 01:21:36;;;;;;;20.77;8.38;;;;;;;23.33;61.17;99262.09;8465613;28;20075;-79
2022/06/28 01:25:38;;;;;;;14.07;7.95;;;;;;;23.33;60.88;99272.34;8465264;28;20096;-80
2022/06/28 01:29:38;;;;;;;13.82;7.88;;;;;;;23.34;60.80;99273.94;8462681;28;20142;-79
2022/06/28 01:33:40;;;;;;;9.30;7.15;;;;;;;23.31;61.34;99296.75;8465306;28;20059;-80
2022/06/28 01:37:41;;;;;;;12.48;7.60;;;;;;;23.31;61.55;99280.22;8464972;28;20039;-79
2022/06/28 01:41:43;;;;;;;11.98;7.60;;;;;;;23.30;62.23;99279.44;8449692;28;20052;-80
2022/06/28 01:45:45;;;;;;;9.88;6.53;;;;;;;23.28;62.48;99287.28;8417128;27;20043;-80
2022/06/28 01:49:46;;;;;;;13.85;7.13;;;;;;;23.28;63.24;99286.50;8463687;28;20051;-80
2022/06/28 01:53:47;;;;;;;13.27;7.22;;;;;;;23.33;63.75;99272.34;8464638;27;20449;-81
2022/06/28 01:57:48;;;;;;;12.82;6.10;;;;;;;23.38;63.48;99275.50;8465352;27;20131;-79
2022/06/28 02:01:48;;;;;;;10.65;6.28;;;;;;;23.44;63.57;99273.94;8455529;28;20445;-79
2022/06/28 02:05:49;;;;;;;13.40;6.25;;;;;;;23.51;63.11;99278.72;8464052;28;20048;-80
2022/06/28 02:09:50;;;;;;;8.77;5.70;;;;;;;23.53;62.99;99276.34;8464383;28;20545;-81
2022/06/28 02:13:51;;;;;;;14.05;6.40;;;;;;;23.52;63.08;99292.13;8463885;28;20043;-80
2022/06/28 02:17:52;;;;;;;11.25;5.75;;;;;;;23.55;62.83;99301.56;8464089;28;20044;-80
2022/06/28 02:21:53;;;;;;;10.80;6.20;;;;;;;23.54;63.01;99289.75;8464442;28;20040;-80
2022/06/28 02:25:54;;;;;;;7.53;5.97;;;;;;;23.61;62.82;99310.25;8463552;28;20535;-80
2022/06/28 02:29:55;;;;;;;7.47;5.70;;;;;;;23.58;62.85;99317.34;8456688;28;20048;-82
2022/06/28 02:33:57;;;;;;;9.25;5.55;;;;;;;23.58;62.83;99333.09;8463326;28;20125;-79
2022/06/28 02:42:17;;;;;;;9.38;6.43;;;;;;;23.58;62.97;99347.66;8448857;28;20043;-80
2022/06/28 02:46:18;;;;;;;7.85;5.88;;;;;;;23.61;63.13;99349.63;8463160;28;20114;-79
2022/06/28 02:50:19;;;;;;;10.75;6.20;;;;;;;23.58;63.03;99340.16;8462985;28;20047;-81
2022/06/28 02:54:20;;;;;;;9.02;6.25;;;;;;;23.61;63.20;99348.84;8461747;28;20093;-80
2022/06/28 02:58:21;;;;;;;10.57;5.97;;;;;;;23.59;63.65;99357.50;8472537;27;20040;-80
2022/06/28 03:02:22;;;;;;;8.70;6.30;;;;;;;23.61;63.56;99371.69;8462950;27;20048;-80
2022/06/28 03:06:23;;;;;;;8.40;6.22;;;;;;;23.57;63.67;99376.41;8467136;27;20118;-80
2022/06/28 03:10:24;;;;;;;9.77;6.15;;;;;;;23.55;63.91;99384.28;8468099;27;20047;-81
2022/06/28 03:14:25;;;;;;;11.05;6.40;;;;;;;23.56;64.75;99380.34;8471485;27;20055;-82
2022/06/28 03:18:26;;;;;;;8.60;6.28;;;;;;;23.57;64.90;99381.94;8467735;27;20461;-82
2022/06/28 03:22:28;;;;;;;10.73;6.80;;;;;;;23.56;64.85;99380.34;8462242;28;20108;-80
2022/06/28 03:26:29;;;;;;;17.20;6.97;;;;;;;23.49;65.23;99380.31;8460097;28;20411;-82
2022/06/28 03:30:31;;;;;;;14.85;6.85;;;;;;;23.45;65.46;99385.81;8468605;27;20167;-82
2022/06/28 03:34:32;;;;;;;12.10;6.85;;;;;;;23.44;65.59;99388.91;8468974;27;20096;-81
2022/06/28 03:38:33;;;;;;;11.13;7.10;;;;;;;23.42;65.89;99374.75;8462979;28;20054;-80
2022/06/28 03:42:34;;;;;;;12.15;7.25;;;;;;;23.38;66.60;99373.94;8470246;27;20503;-80
2022/06/28 03:46:35;;;;;;;10.80;7.43;;;;;;;23.39;66.82;99370.00;8462948;28;20055;-80
2022/06/28 03:50:40;;;;;;;16.13;7.90;;;;;;;23.39;67.45;99367.25;8465021;28;20052;-81
2022/06/28 03:54:40;;;;;;;13.80;8.07;;;;;;;23.40;67.21;99382.59;8467934;28;20047;-82
2022/06/28 03:58:42;;;;;;;31.05;8.15;;;;;;;23.39;67.62;99401.09;8467802;28;20052;-81
2022/06/28 04:02:43;;;;;;;11.15;7.57;;;;;;;23.40;68.15;99415.69;8464052;28;20059;-80
2022/06/28 04:06:44;;;;;;;12.25;7.57;;;;;;;23.36;68.46;99414.88;8461242;28;20062;-82
2022/06/28 04:10:45;;;;;;;11.88;8.52;;;;;;;23.37;69.30;99421.97;8468461;28;20138;-82
2022/06/28 04:14:49;;;;;;;11.02;8.68;;;;;;;23.35;69.50;99424.31;8458195;28;20100;-81
2022/06/28 04:18:50;;;;;;;14.13;8.43;;;;;;;23.26;70.45;99427.44;8468773;28;20522;-82
2022/06/28 04:22:52;;;;;;;15.13;8.18;;;;;;;23.22;70.93;99442.34;8452684;28;20050;-82
2022/06/28 04:26:53;;;;;;;9.82;7.88;;;;;;;23.18;71.64;99425.81;8451843;28;20052;-82
2022/06/28 04:30:55;;;;;;;12.27;8.57;;;;;;;23.07;71.76;99414.72;8438556;28;20289;-82
2022/06/28 04:34:56;;;;;;;13.85;8.55;;;;;;;23.01;72.42;99399.72;8450317;28;20127;-82
2022/06/28 04:38:58;;;;;;;10.63;8.00;;;;;;;23.01;72.62;99405.22;8465936;28;20047;-80
2022/06/28 04:42:59;;;;;;;12.68;8.10;;;;;;;23.01;73.10;99407.19;8453247;28;20050;-80
2022/06/28 04:47:01;;;;;;;13.27;8.65;;;;;;;23.05;73.26;99417.06;8467529;28;20092;-81
2022/06/28 04:51:11;;;;;;;14.23;8.48;;;;;;;22.99;73.37;99423.34;8466347;28;20040;-80
2022/06/28 04:55:12;;;;;;;13.00;8.50;;;;;;;22.97;73.63;99431.97;8453194;28;20109;-80
2022/06/28 04:59:12;;;;;;;13.13;8.05;;;;;;;22.98;73.74;99433.56;8467707;28;20126;-80
2022/06/28 05:03:13;;;;;;;12.88;9.13;;;;;;;23.01;73.84;99421.75;8466632;28;20467;-82
2022/06/28 05:07:14;;;;;;;13.55;7.95;;;;;;;23.05;74.32;99417.06;8465188;28;20052;-79
2022/06/28 05:11:15;;;;;;;11.20;8.80;;;;;;;23.09;74.00;99423.41;8454406;28;20040;-83
2022/06/28 05:15:17;;;;;;;10.35;8.52;;;;;;;23.12;74.04;99411.59;8459890;28;20126;-80
2022/06/28 05:19:18;;;;;;;9.38;8.18;;;;;;;23.20;73.75;99406.13;8466401;28;20043;-82
2022/06/28 05:23:19;;;;;;;17.00;9.30;;;;;;;23.28;73.75;99388.44;8466596;28;20096;-80
2022/06/28 05:27:20;;;;;;;10.30;8.35;;;;;;;23.34;73.58;99381.41;8453255;28;20667;-80
2022/06/28 05:31:21;;;;;;;14.70;8.65;;;;;;;23.34;73.57;99384.94;8446932;28;20048;-80
2022/06/28 05:35:22;;;;;;;13.77;8.60;;;;;;;23.33;73.62;99371.53;8466387;28;20043;-80
2022/06/28 05:39:23;;;;;;;11.32;8.27;;;;;;;23.50;73.16;99382.69;8466273;27;20067;-81
2022/06/28 05:43:24;;;;;;;11.27;8.93;;;;;;;23.59;73.14;99404.34;8451641;28;20426;-80
2022/06/28 05:47:25;;;;;;;12.73;8.93;;;;;;;23.65;72.86;99405.56;8465916;28;20393;-81
2022/06/28 05:51:28;;;;;;;18.70;9.70;;;;;;;23.76;72.82;99405.59;8465770;28;20155;-81
2022/06/28 05:55:30;;;;;;;13.88;10.35;;;;;;;23.91;72.19;99413.53;8465664;28;20077;-80
2022/06/28 05:59:32;;;;;;;13.77;9.93;;;;;;;23.85;72.01;99420.59;8463376;28;20048;-82
2022/06/28 06:03:33;;;;;;;15.50;9.15;;;;;;;23.91;72.03;99429.28;8464045;28;20047;-81
2022/06/28 06:07:34;;;;;;;14.35;8.55;;;;;;;24.03;72.10;99436.41;8464826;28;20070;-80
2022/06/28 06:11:35;;;;;;;17.27;9.68;;;;;;;24.02;72.01;99448.63;8465055;28;20047;-81
2022/06/28 06:15:36;;;;;;;16.08;9.07;;;;;;;23.89;72.55;99465.56;8464066;28;20043;-80
2022/06/28 06:19:37;;;;;;;34.40;9.77;;;;;;;23.82;72.71;99465.50;8464733;28;20514;-80
2022/06/28 06:23:38;;;;;;;13.70;9.05;;;;;;;23.79;73.16;99471.81;8464787;28;20066;-80
2022/06/28 06:27:39;;;;;;;13.63;9.77;;;;;;;23.67;74.04;99485.94;8450173;28;20043;-80
2022/06/28 06:31:40;;;;;;;12.90;9.45;;;;;;;23.59;74.36;99489.81;8450161;28;20449;-81
2022/06/28 06:35:44;;;;;;;14.07;10.23;;;;;;;23.59;74.13;99495.34;8464459;28;20052;-82
2022/06/28 06:39:45;;;;;;;9.32;7.82;;;;;;;23.51;74.77;99499.25;8464340;28;20138;-81
2022/06/28 06:43:47;;;;;;;10.18;7.93;;;;;;;23.12;75.35;99499.75;8464037;28;20040;-81
2022/06/28 06:47:48;;;;;;;12.43;7.97;;;;;;;22.82;76.47;99518.41;8461762;28;20075;-82
2022/06/28 06:51:49;;;;;;;11.13;7.57;;;;;;;22.63;77.31;99538.63;8455649;28;20044;-82
2022/06/28 06:55:50;;;;;;;10.27;7.93;;;;;;;22.58;77.64;99551.94;8463709;28;20062;-80
2022/06/28 06:59:51;;;;;;;8.82;6.75;;;;;;;22.77;77.26;99554.56;8463381;28;20480;-80
2022/06/28 07:03:52;;;;;;;13.18;7.68;;;;;;;22.97;76.44;99553.16;8463345;28;20456;-79
2022/06/28 07:07:53;;;;;;;9.13;7.10;;;;;;;23.07;75.70;99574.50;8463352;28;20139;-79
2022/06/28 07:11:54;;;;;;;9.82;7.32;;;;;;;22.99;75.74;99581.13;8463325;28;20100;-80
2022/06/28 07:15:55;;;;;;;7.07;6.45;;;;;;;23.01;75.77;99581.50;8441043;28;20060;-80
2022/06/28 07:19:58;;;;;;;8.50;6.70;;;;;;;23.07;75.27;99585.50;8439226;28;20044;-81
2022/06/28 07:23:59;;;;;;;8.80;6.30;;;;;;;23.36;74.46;99602.28;8447793;28;20142;-80
2022/06/28 07:28:00;;;;;;;10.55;6.57;;;;;;;23.37;74.08;99606.63;8443365;28;20036;-80
2022/06/28 07:32:01;;;;;;;10.45;6.30;;;;;;;23.32;74.10;99618.00;8444400;28;20463;-82
2022/06/28 07:36:02;;;;;;;13.02;5.32;;;;;;;23.21;74.13;99628.16;8443291;28;20043;-80
2022/06/28 07:40:05;;;;;;;8.07;6.00;;;;;;;23.30;73.20;99625.84;8447948;28;20051;-79
2022/06/28 07:44:06;;;;;;;10.50;5.57;;;;;;;23.47;72.13;99636.25;8462277;28;20069;-80
2022/06/28 07:48:10;;;;;;;6.88;5.75;;;;;;;23.64;72.17;99629.28;8462354;28;20126;-79
2022/06/28 07:56:31;;;;;;;8.40;5.70;;;;;;;24.16;68.93;99645.38;8462007;28;20495;-80
2022/06/28 08:00:32;;;;;;;8.10;6.25;;;;;;;24.13;69.55;99645.34;8459788;28;20047;-79
2022/06/28 08:04:33;;;;;;;10.00;5.85;;;;;;;24.21;69.16;99647.00;8454185;28;20093;-80
2022/06/28 08:08:34;;;;;;;13.65;5.70;;;;;;;24.03;69.82;99652.41;8455289;28;20143;-79
2022/06/28 08:12:35;;;;;;;7.43;5.40;;;;;;;23.93;69.83;99647.59;8461715;28;20055;-80
2022/06/28 08:16:36;;;;;;;8.50;5.35;;;;;;;23.82;69.50;99636.50;8447650;28;20055;-79
2022/06/28 08:20:37;;;;;;;6.80;5.03;;;;;;;23.84;69.64;99650.72;8461856;28;20055;-82
2022/06/28 08:24:39;;;;;;;12.38;5.57;;;;;;;23.72;69.99;99651.03;8461496;28;20044;-79
2022/06/28 08:28:41;;;;;;;8.52;5.65;;;;;;;23.49;70.32;99645.72;8442656;28;20039;-80
2022/06/28 08:32:43;;;;;;;7.05;5.15;;;;;;;23.29;71.29;99640.78;8447096;28;20069;-80
2022/06/28 08:36:43;;;;;;;5.30;4.75;;;;;;;23.19;71.36;99630.47;8464013;28;20044;-79
2022/06/28 08:40:45;;;;;;;6.28;5.05;;;;;;;23.11;71.20;99641.41;8467773;27;20096;-78
2022/06/28 08:44:47;;;;;;;8.10;4.30;;;;;;;23.14;70.76;99635.16;8431898;28;20054;-80
2022/06/28 08:48:53;;;;;;;5.97;4.00;;;;;;;23.40;69.87;99630.66;8467384;28;20047;-80
2022/06/28 08:52:55;;;;;;;5.40;4.10;;;;;;;23.89;68.51;99636.56;8467267;28;20089;-79
2022/06/28 08:56:56;;;;;;;9.98;4.03;;;;;;;24.47;66.62;99643.19;8463211;28;20055;-79
2022/06/28 09:00:58;;;;;;;5.75;4.38;;;;;;;24.92;64.24;99647.28;8452547;28;20067;-81
2022/06/28 09:05:00;;;;;;;4.63;3.92;;;;;;;25.25;63.11;99649.72;8463008;28;20120;-79
2022/06/28 09:09:01;;;;;;;5.28;3.35;;;;;;;25.40;61.70;99645.75;8448420;28;20139;-83
2022/06/28 09:13:11;;;;;;;3.67;3.20;;;;;;;25.36;61.63;99650.50;8462973;28;20055;-79
2022/06/28 09:17:22;;;;;;;3.47;3.10;;;;;;;25.32;61.74;99660.78;8462828;28;20108;-80
2022/06/28 09:21:23;;;;;;;6.45;3.72;;;;;;;25.21;61.05;99668.25;8449451;28;20043;-81
2022/06/28 09:25:26;;;;;;;5.72;3.80;;;;;;;24.97;61.97;99674.53;8428223;28;20139;-79
2022/06/28 09:29:27;;;;;;;7.30;3.90;;;;;;;24.82;62.00;99685.50;8462372;28;20047;-81
2022/06/28 09:33:28;;;;;;;4.63;3.45;;;;;;;24.41;63.75;99689.69;8460209;28;20044;-79
2022/06/28 09:37:33;;;;;;;8.13;3.90;;;;;;;24.00;65.55;99698.09;8470425;27;20055;-80
2022/06/28 09:41:34;;;;;;;7.88;3.90;;;;;;;23.60;67.46;99700.94;8429656;28;20052;-80
2022/06/28 09:45:40;;;;;;;8.43;3.97;;;;;;;23.45;67.92;99704.72;8451561;28;20132;-81
2022/06/28 09:49:41;;;;;;;4.90;4.38;;;;;;;23.23;69.36;99713.97;8447783;28;20489;-81
2022/06/28 09:53:44;;;;;;;5.35;3.85;;;;;;;23.09;69.74;99709.91;8464825;28;20052;-80
2022/06/28 09:57:47;;;;;;;7.65;4.88;;;;;;;23.08;69.99;99702.78;8464861;28;20471;-80
2022/06/28 10:02:09;;;;;;;6.38;4.20;;;;;;;22.98;70.26;99714.50;8451994;28;20107;-79
2022/06/28 10:06:11;;;;;;;8.57;4.47;;;;;;;22.99;70.46;99699.56;8431518;28;20035;-80
2022/06/28 10:10:13;;;;;;;7.60;4.50;;;;;;;22.95;70.45;99709.72;8475265;27;20624;-80
2022/06/28 10:18:34;;;;;;;9.88;5.65;;;;;;;23.15;68.86;99718.63;8486554;27;20514;-80
2022/06/28 10:22:35;;;;;;;6.68;5.18;;;;;;;23.42;68.32;99722.03;8494378;27;20062;-80
2022/06/28 10:26:36;;;;;;;7.50;5.00;;;;;;;23.44;67.93;99725.19;8494745;27;20047;-82
2022/06/28 10:30:37;;;;;;;7.28;5.35;;;;;;;23.50;67.66;99723.69;8485943;27;20147;-80
2022/06/28 10:34:52;;;;;;;6.18;5.20;;;;;;;23.64;67.38;99718.31;8435285;27;20494;-79
2022/06/28 10:39:08;;;;;;;8.40;5.22;;;;;;;23.92;66.30;99724.06;8451206;28;20503;-80
2022/06/28 10:43:09;;;;;;;8.02;4.78;;;;;;;24.09;65.31;99749.41;8463855;28;20503;-79
2022/06/28 10:47:15;;;;;;;8.77;4.97;;;;;;;24.27;64.78;99753.09;8440084;28;20052;-79
2022/06/28 10:51:18;;;;;;;5.32;4.63;;;;;;;24.24;64.53;99746.38;8454499;28;20043;-80
2022/06/28 10:55:21;;;;;;;6.95;4.93;;;;;;;24.54;63.91;99743.38;8463401;28;20043;-82
2022/06/28 10:59:35;;;;;;;13.18;6.00;;;;;;;24.66;63.11;99740.28;8448511;28;20082;-80
2022/06/28 11:04:11;;;;;;;7.15;5.05;;;;;;;24.53;63.64;99752.88;8448088;28;20495;-79
2022/06/28 11:08:38;;;;;;;9.55;6.10;;;;;;;24.60;63.10;99757.63;8462888;28;20060;-79
2022/06/28 11:12:41;;;;;;;6.32;5.63;;;;;;;24.68;63.13;99768.34;8391489;28;20045;-81
2022/06/28 11:17:09;;;;;;;6.28;5.60;;;;;;;24.67;62.46;99771.47;8391907;28;20066;-80
2022/06/28 11:21:10;;;;;;;8.65;5.65;;;;;;;24.69;62.19;99756.09;8358278;28;20048;-81
2022/06/28 11:25:13;;;;;;;6.97;6.00;;;;;;;24.81;61.07;99758.50;8358056;28;20049;-81
2022/06/28 11:29:14;;;;;;;8.15;5.90;;;;;;;24.77;61.61;99760.47;8357847;28;20497;-80
2022/06/28 11:33:16;;;;;;;7.30;5.38;;;;;;;24.96;61.83;99769.63;8356183;28;20060;-79
2022/06/28 11:37:16;;;;;;;7.45;5.63;;;;;;;25.32;60.69;99771.38;8346144;28;20037;-80
2022/06/28 11:41:28;;;;;;;7.13;5.80;;;;;;;25.55;59.60;99782.88;8358464;28;20063;-80
2022/06/28 11:45:30;;;;;;;9.55;5.65;;;;;;;25.83;59.98;99778.56;8358089;28;20617;-81
2022/06/28 11:49:32;;;;;;;7.20;5.53;;;;;;;25.61;59.06;99784.06;8421042;28;20055;-80
2022/06/28 11:53:44;;;;;;;8.30;6.32;;;;;;;25.51;58.48;99790.34;8421104;28;20048;-80
2022/06/28 11:57:45;;;;;;;6.63;5.40;;;;;;;25.82;57.80;99776.97;8450489;28;20059;-80
2022/06/28 12:01:46;;;;;;;6.35;5.65;;;;;;;25.77;57.90;99780.13;8462019;28;20043;-82
2022/06/28 12:05:49;;;;;;;5.45;4.90;;;;;;;26.16;56.91;99778.16;8462213;28;20428;-79
2022/06/28 12:09:53;;;;;;;8.10;5.35;;;;;;;26.35;56.30;99771.44;8459359;28;20415;-81
2022/06/28 12:14:21;;;;;;;7.63;4.47;;;;;;;25.96;56.92;99777.00;8468102;28;20114;-80
2022/06/28 12:18:22;;;;;;;5.45;4.95;;;;;;;25.81;57.15;99781.72;8430742;28;20559;-81
2022/06/28 12:22:24;;;;;;;8.93;4.97;;;;;;;25.64;57.57;99772.22;8447846;28;20090;-79
2022/06/28 12:26:45;;;;;;;4.97;4.47;;;;;;;25.85;56.49;99770.66;8430798;28;20453;-80
2022/06/28 12:30:47;;;;;;;4.93;4.53;;;;;;;26.01;56.54;99773.81;8430181;28;20044;-80
2022/06/28 12:34:48;;;;;;;7.28;5.15;;;;;;;26.34;55.83;99770.63;8413145;28;20044;-80
2022/06/28 12:38:49;;;;;;;6.18;5.00;;;;;;;26.41;56.22;99767.88;8430513;28;20079;-80
2022/06/28 12:42:50;;;;;;;6.00;4.70;;;;;;;26.70;55.75;99765.03;8429968;28;20408;-81
2022/06/28 12:46:52;;;;;;;5.35;4.50;;;;;;;26.84;55.75;99764.97;8430002;28;20059;-80
2022/06/28 12:50:53;;;;;;;5.22;4.35;;;;;;;26.95;55.76;99767.72;8412923;28;20070;-82
2022/06/28 12:54:54;;;;;;;7.30;4.85;;;;;;;26.69;55.09;99774.53;8444408;28;20052;-81
2022/06/28 12:58:57;;;;;;;7.10;4.90;;;;;;;26.47;54.76;99769.03;8467131;28;20048;-81
2022/06/28 13:02:58;;;;;;;7.57;4.78;;;;;;;26.44;54.60;99769.81;8467290;28;20051;-80
2022/06/28 13:07:00;;;;;;;6.18;4.90;;;;;;;26.49;54.29;99755.56;8466984;28;20189;-82
2022/06/28 13:11:02;;;;;;;6.47;4.60;;;;;;;26.59;53.85;99747.66;8466730;28;20056;-79
2022/06/28 13:15:04;;;;;;;6.75;4.90;;;;;;;26.71;53.90;99744.41;8452598;28;20051;-80
2022/06/28 13:19:08;;;;;;;5.25;4.40;;;;;;;27.09;53.08;99737.94;8464482;28;20089;-79
2022/06/28 13:23:09;;;;;;;5.63;4.70;;;;;;;27.39;52.45;99722.72;8466132;27;20047;-80
2022/06/28 13:27:10;;;;;;;5.03;4.53;;;;;;;27.80;51.24;99720.84;8466305;28;20365;-80
2022/06/28 13:31:12;;;;;;;7.18;5.30;;;;;;;28.09;49.30;99711.03;8434221;28;20068;-81
2022/06/28 13:35:15;;;;;;;6.40;4.55;;;;;;;28.49;48.89;99705.88;8465061;28;20146;-80
2022/06/28 13:39:17;;;;;;;10.63;4.45;;;;;;;28.17;48.82;99711.00;8466021;27;20039;-80
2022/06/28 13:43:33;;;;;;;7.82;4.30;;;;;;;27.55;50.07;99714.69;8465776;27;20052;-79
2022/06/28 13:47:35;;;;;;;6.00;4.22;;;;;;;26.98;50.68;99717.81;8465713;28;20055;-80
2022/06/28 13:51:36;;;;;;;6.28;4.43;;;;;;;26.69;51.89;99719.13;8465623;27;20558;-81
2022/06/28 13:55:38;;;;;;;6.60;5.00;;;;;;;27.20;52.13;99716.50;8465622;28;20048;-80
2022/06/28 13:59:39;;;;;;;6.93;4.45;;;;;;;27.42;49.77;99699.72;8450734;28;20062;-79
2022/06/28 14:03:40;;;;;;;7.60;4.88;;;;;;;27.16;50.71;99704.66;8465052;27;20048;-78
2022/06/28 14:07:43;;;;;;;6.13;4.63;;;;;;;26.95;51.43;99693.69;8450695;28;20067;-80
2022/06/28 14:11:44;;;;;;;6.72;4.57;;;;;;;27.19;51.40;99687.19;8464909;28;20130;-81
2022/06/28 14:15:45;;;;;;;5.22;4.00;;;;;;;28.93;47.46;99686.28;8464595;28;20052;-81
2022/06/28 14:19:46;;;;;;;7.43;4.00;;;;;;;30.11;44.16;99685.22;8464679;27;20144;-80
2022/06/28 14:23:47;;;;;;;4.07;3.72;;;;;;;29.75;42.72;99685.81;8464614;28;20059;-82
2022/06/28 14:27:48;;;;;;;4.38;3.47;;;;;;;31.61;40.21;99678.81;8459194;28;20044;-81
2022/06/28 14:31:50;;;;;;;7.60;3.40;;;;;;;32.98;36.40;99679.00;8438570;28;20088;-81
2022/06/28 14:35:52;;;;;;;5.78;3.25;;;;;;;34.33;34.98;99674.53;8439838;28;20126;-80
2022/06/28 14:39:53;;;;;;;7.65;3.38;;;;;;;34.19;34.79;99675.03;8459051;28;20044;-83
2022/06/28 14:43:54;;;;;;;17.77;4.03;;;;;;;33.80;34.65;99671.56;8462406;28;20466;-81
2022/06/28 14:47:55;;;;;;;5.15;3.47;;;;;;;34.39;33.83;99650.25;8462558;28;20051;-81
2022/06/28 14:51:56;;;;;;;4.32;3.60;;;;;;;35.15;32.67;99661.75;8463233;28;20113;-81
2022/06/28 14:55:59;;;;;;;4.25;3.70;;;;;;;34.52;33.60;99658.63;8461549;28;20040;-81
2022/06/28 15:00:00;;;;;;;4.35;3.30;;;;;;;34.88;33.36;99658.84;8458169;28;20103;-81
2022/06/28 15:04:01;;;;;;;4.68;4.00;;;;;;;34.58;33.90;99657.53;8458697;28;20055;-81
2022/06/28 15:08:05;;;;;;;3.90;3.50;;;;;;;34.43;33.98;99650.91;8477918;27;20135;-83
2022/06/28 15:12:06;;;;;;;3.85;3.28;;;;;;;34.22;32.90;99654.50;8452812;28;20055;-82
2022/06/28 15:16:07;;;;;;;3.58;3.28;;;;;;;33.92;33.83;99639.94;8461653;28;20052;-83
2022/06/28 15:20:09;;;;;;;4.20;3.30;;;;;;;33.81;34.16;99639.53;8457962;28;20089;-84
2022/06/28 15:32:48;;;;;;;3.63;2.97;;;;;;;36.25;31.65;99640.28;8461712;28;20123;-86
2022/06/28 15:36:50;;;;;;;4.53;3.20;;;;;;;36.45;30.87;99631.31;8460210;28;20044;-87
2022/06/28 15:40:51;;;;;;;5.45;3.30;;;;;;;36.63;30.34;99631.31;8461545;28;20418;-85
2022/06/28 15:44:52;;;;;;;4.05;3.25;;;;;;;35.26;31.52;99627.66;8422624;27;20052;-85
2022/06/28 15:48:53;;;;;;;7.55;3.35;;;;;;;34.16;32.82;99634.66;8460698;28;20039;-86
2022/06/28 15:52:54;;;;;;;4.40;3.15;;;;;;;33.00;34.50;99626.16;8459017;28;20043;-84
2022/06/28 15:56:55;;;;;;;5.63;3.60;;;;;;;32.08;36.22;99628.88;8462909;28;20054;-85
2022/06/28 16:00:57;;;;;;;3.42;3.10;;;;;;;31.32;37.92;99639.63;8462457;28;20047;-85
2022/06/28 16:04:58;;;;;;;4.85;2.85;;;;;;;30.69;38.96;99641.06;8471361;28;20074;-85
2022/06/28 16:08:59;;;;;;;3.38;3.00;;;;;;;30.36;39.81;99629.78;8460909;28;20052;-87
2022/06/28 16:13:00;;;;;;;3.67;3.10;;;;;;;30.10;39.54;99633.50;8461541;28;20043;-87
2022/06/28 16:17:01;;;;;;;4.22;2.95;;;;;;;29.44;40.88;99628.72;8454079;28;20052;-86
2022/06/28 16:21:03;;;;;;;3.38;3.08;;;;;;;29.52;40.64;99638.50;8461114;28;20047;-85
2022/06/28 16:25:04;;;;;;;5.20;2.88;;;;;;;29.32;41.61;99630.09;8461472;28;20053;-84
2022/06/28 16:29:05;;;;;;;5.85;3.55;;;;;;;28.98;42.20;99631.41;8458892;28;20097;-88
2022/06/28 16:33:07;;;;;;;3.67;3.10;;;;;;;28.87;42.65;99626.03;8443480;28;20044;-85
2022/06/28 16:37:07;;;;;;;3.38;2.80;;;;;;;28.76;42.98;99626.16;8461448;28;20043;-84
2022/06/28 16:41:09;;;;;;;6.57;3.22;;;;;;;28.71;43.57;99634.91;8453944;28;20047;-84
2022/06/28 16:45:10;;;;;;;6.78;3.70;;;;;;;28.66;43.23;99638.16;8460889;28;20134;-83
2022/06/28 16:49:12;;;;;;;7.55;3.30;;;;;;;28.14;44.03;99641.19;8454818;28;20036;-85
2022/06/28 16:53:13;;;;;;;3.45;3.15;;;;;;;27.67;45.20;99650.38;8450849;28;20052;-84
2022/06/28 16:57:14;;;;;;;5.85;4.05;;;;;;;27.44;46.08;99658.50;8476084;28;20047;-84
2022/06/28 17:01:15;;;;;;;5.13;4.07;;;;;;;27.16;47.13;99660.28;8472696;27;20127;-83
2022/06/28 17:05:16;;;;;;;4.32;3.85;;;;;;;26.81;47.71;99666.00;8467019;28;20085;-85
2022/06/28 17:09:17;;;;;;;6.03;4.50;;;;;;;26.65;48.31;99662.94;8462698;28;20059;-85
2022/06/28 17:13:18;;;;;;;5.05;4.25;;;;;;;26.64;48.43;99661.34;8466657;28;20118;-86
2022/06/28 17:17:20;;;;;;;4.47;4.05;;;;;;;26.48;49.15;99665.38;8466398;28;20360;-84
2022/06/28 17:21:21;;;;;;;6.63;4.68;;;;;;;26.33;49.46;99663.84;8456089;27;20070;-87
2022/06/28 17:25:24;;;;;;;10.05;4.53;;;;;;;26.20;50.05;99665.44;8466011;28;20118;-82
2022/06/28 17:29:26;;;;;;;4.85;4.35;;;;;;;26.19;50.18;99669.38;8464539;27;20395;-82
2022/06/28 17:33:26;;;;;;;5.20;4.40;;;;;;;25.92;50.39;99665.50;8460969;28;20047;-81
2022/06/28 17:37:28;;;;;;;10.13;4.55;;;;;;;25.89;51.01;99655.25;8457430;28;20044;-81
2022/06/28 17:41:30;;;;;;;9.00;4.60;;;;;;;25.81;51.21;99659.19;8451290;28;20049;-84
2022/06/28 17:45:31;;;;;;;6.82;4.53;;;;;;;25.64;51.64;99661.56;8465676;27;20422;-81
2022/06/28 17:49:33;;;;;;;9.30;4.28;;;;;;;25.60;51.38;99655.25;8418037;28;20075;-82
2022/06/28 17:53:34;;;;;;;5.18;4.43;;;;;;;25.44;52.24;99652.06;8464818;28;20046;-82
2022/06/28 17:57:38;;;;;;;6.00;4.50;;;;;;;25.35;52.42;99643.38;8460134;28;20052;-84
2022/06/28 18:01:41;;;;;;;4.57;4.15;;;;;;;25.26;52.30;99642.22;8471701;27;20043;-84
2022/06/28 18:05:42;;;;;;;9.77;5.28;;;;;;;25.15;52.69;99644.97;8464988;28;20040;-84
2022/06/28 18:09:44;;;;;;;5.10;4.45;;;;;;;25.16;53.12;99641.00;8464143;28;20048;-84
2022/06/28 18:13:45;;;;;;;5.28;4.50;;;;;;;24.97;53.24;99641.38;8455122;28;20044;-83
2022/06/28 18:17:46;;;;;;;5.75;4.70;;;;;;;24.81;53.61;99638.94;8457678;28;20063;-85
2022/06/28 18:21:47;;;;;;;8.32;4.30;;;;;;;24.60;53.56;99642.44;8455108;28;20130;-84
2022/06/28 18:25:48;;;;;;;6.05;4.40;;;;;;;24.55;54.37;99640.06;8450372;28;20066;-84
2022/06/28 18:29:49;;;;;;;6.82;4.40;;;;;;;24.47;54.36;99632.94;8462803;28;20043;-83
2022/06/28 18:33:50;;;;;;;5.20;4.70;;;;;;;24.27;55.14;99634.44;8464758;28;20055;-83
2022/06/28 18:37:51;;;;;;;8.85;5.13;;;;;;;24.27;55.54;99631.66;8463411;28;20150;-82
2022/06/28 18:41:52;;;;;;;7.43;5.32;;;;;;;24.14;55.95;99652.47;8448490;28;20289;-81
2022/06/28 18:45:53;;;;;;;7.70;5.57;;;;;;;24.03;56.04;99663.44;8478112;27;20040;-82
2022/06/28 18:49:55;;;;;;;6.57;5.22;;;;;;;23.94;56.40;99672.06;8456599;28;20039;-80
2022/06/28 18:53:56;;;;;;;6.30;5.38;;;;;;;23.78;56.83;99663.28;8443912;27;20067;-81
2022/06/28 18:57:57;;;;;;;6.50;5.55;;;;;;;23.71;57.18;99671.50;8447753;28;20040;-81
2022/06/28 19:01:59;;;;;;;6.13;5.32;;;;;;;23.66;57.16;99676.56;8431420;28;20407;-81
2022/06/28 19:06:00;;;;;;;12.57;5.45;;;;;;;23.60;57.59;99684.41;8406272;28;20055;-80
2022/06/28 19:10:03;;;;;;;5.82;5.07;;;;;;;23.62;57.45;99695.84;8444991;28;20419;-81
2022/06/28 19:14:04;;;;;;;5.85;5.25;;;;;;;23.58;57.81;99697.78;8451301;28;20165;-82
2022/06/28 19:18:06;;;;;;;7.18;5.13;;;;;;;23.59;57.91;99710.38;8461124;27;20077;-81
2022/06/28 19:22:07;;;;;;;7.50;5.18;;;;;;;23.60;58.13;99706.47;8443510;28;20044;-81
2022/06/28 19:26:09;;;;;;;5.47;4.97;;;;;;;23.59;58.28;99710.38;8460898;28;20052;-80
2022/06/28 19:30:11;;;;;;;6.15;5.07;;;;;;;23.54;58.58;99713.50;8457668;27;20036;-80
2022/06/28 19:34:12;;;;;;;5.28;4.75;;;;;;;23.47;59.07;99705.19;8443334;28;20645;-81